sensor_id;sensor_type;location;lat;lon;timestamp;pressure;altitude;pressure_sealevel;temperature;humidity
54936;BME280;40838;50.676;7.838;2023-05-02T00:00:59;98502.31;;;4.62;100.00
54936;BME280;40838;50.676;7.838;2023-05-02T00:03:29;98494.59;;;4.60;100.00
54936;BME280;40838;50.676;7.838;2023-05-02T00:05:55;98498.72;;;4.68;100.00
54936;BME280;40838;50.676;7.838;2023-05-02T00:08:22;98499.31;;;4.47;100.00
54936;BME280;40838;50.676;7.838;2023-05-02T00:10:50;98494.97;;;4.52;100.00
54936;BME280;40838;50.676;7.838;2023-05-02T00:13:17;98502.31;;;4.50;100.00
54936;BME280;40838;50.676;7.838;2023-05-02T00:15:43;98503.56;;;4.59;100.00
54936;BME280;40838;50.676;7.838;2023-05-02T00:18:12;98499.53;;;4.69;100.00
54936;BME280;40838;50.676;7.838;2023-05-02T00:20:39;98506.91;;;4.43;100.00
54936;BME280;40838;50.676;7.838;2023-05-02T00:23:05;98508.25;;;4.57;100.00
54936;BME280;40838;50.676;7.838;2023-05-02T00:25:32;98505.16;;;4.60;100.00
54936;BME280;40838;50.676;7.838;2023-05-02T00:28:00;98509.19;;;4.51;100.00
54936;BME280;40838;50.676;7.838;2023-05-02T00:30:26;98510.75;;;4.64;100.00
54936;BME280;40838;50.676;7.838;2023-05-02T00:32:53;98506.41;;;4.58;100.00
54936;BME280;40838;50.676;7.838;2023-05-02T00:35:20;98512.06;;;4.50;100.00
54936;BME280;40838;50.676;7.838;2023-05-02T00:37:46;98520.00;;;4.38;100.00
54936;BME280;40838;50.676;7.838;2023-05-02T00:40:13;98517.94;;;4.40;100.00
54936;BME280;40838;50.676;7.838;2023-05-02T00:42:39;98517.59;;;4.48;100.00
54936;BME280;40838;50.676;7.838;2023-05-02T00:45:08;98521.00;;;4.25;100.00
54936;BME280;40838;50.676;7.838;2023-05-02T00:47:34;98522.88;;;4.36;100.00
54936;BME280;40838;50.676;7.838;2023-05-02T00:50:01;98531.13;;;4.28;100.00
54936;BME280;40838;50.676;7.838;2023-05-02T00:52:29;98522.53;;;4.33;100.00
54936;BME280;40838;50.676;7.838;2023-05-02T00:54:56;98519.75;;;4.16;100.00
54936;BME280;40838;50.676;7.838;2023-05-02T00:57:23;98525.06;;;4.28;100.00
54936;BME280;40838;50.676;7.838;2023-05-02T00:59:50;98523.34;;;4.33;100.00
54936;BME280;40838;50.676;7.838;2023-05-02T01:02:29;98524.13;;;4.34;100.00
54936;BME280;40838;50.676;7.838;2023-05-02T01:04:59;98524.09;;;4.57;100.00
54936;BME280;40838;50.676;7.838;2023-05-02T01:07:40;98520.41;;;4.58;100.00
54936;BME280;40838;50.676;7.838;2023-05-02T01:10:12;98519.88;;;4.56;100.00
54936;BME280;40838;50.676;7.838;2023-05-02T01:12:41;98512.41;;;4.53;100.00
54936;BME280;40838;50.676;7.838;2023-05-02T01:15:09;98520.38;;;4.30;100.00
54936;BME280;40838;50.676;7.838;2023-05-02T01:17:38;98521.13;;;4.54;100.00
54936;BME280;40838;50.676;7.838;2023-05-02T01:20:07;98524.50;;;4.78;100.00
54936;BME280;40838;50.676;7.838;2023-05-02T01:22:35;98517.00;;;4.22;100.00
54936;BME280;40838;50.676;7.838;2023-05-02T01:25:07;98523.78;;;4.18;100.00
54936;BME280;40838;50.676;7.838;2023-05-02T01:27:41;98530.69;;;4.83;100.00
54936;BME280;40838;50.676;7.838;2023-05-02T01:30:10;98522.91;;;5.05;100.00
54936;BME280;40838;50.676;7.838;2023-05-02T01:32:38;98528.53;;;5.09;100.00
54936;BME280;40838;50.676;7.838;2023-05-02T01:35:06;98526.44;;;5.11;100.00
54936;BME280;40838;50.676;7.838;2023-05-02T01:37:33;98526.66;;;5.21;100.00
54936;BME280;40838;50.676;7.838;2023-05-02T01:40:01;98532.19;;;4.67;100.00
54936;BME280;40838;50.676;7.838;2023-05-02T01:42:30;98537.88;;;4.48;100.00
54936;BME280;40838;50.676;7.838;2023-05-02T01:44:58;98541.66;;;4.05;100.00
54936;BME280;40838;50.676;7.838;2023-05-02T01:47:26;98543.25;;;4.17;100.00
54936;BME280;40838;50.676;7.838;2023-05-02T01:49:55;98544.78;;;4.37;100.00
54936;BME280;40838;50.676;7.838;2023-05-02T01:52:23;98549.34;;;4.65;100.00
54936;BME280;40838;50.676;7.838;2023-05-02T01:54:50;98552.03;;;4.82;100.00
54936;BME280;40838;50.676;7.838;2023-05-02T01:57:18;98556.28;;;4.83;100.00
54936;BME280;40838;50.676;7.838;2023-05-02T01:59:45;98562.38;;;4.83;100.00
54936;BME280;40838;50.676;7.838;2023-05-02T02:02:13;98554.75;;;4.99;100.00
54936;BME280;40838;50.676;7.838;2023-05-02T02:04:44;98555.97;;;5.08;100.00
54936;BME280;40838;50.676;7.838;2023-05-02T02:07:12;98563.81;;;5.03;100.00
54936;BME280;40838;50.676;7.838;2023-05-02T02:09:39;98561.31;;;4.84;100.00
54936;BME280;40838;50.676;7.838;2023-05-02T02:12:07;98568.31;;;4.90;100.00
54936;BME280;40838;50.676;7.838;2023-05-02T02:14:38;98572.84;;;5.07;100.00
54936;BME280;40838;50.676;7.838;2023-05-02T02:17:09;98577.53;;;5.17;100.00
54936;BME280;40838;50.676;7.838;2023-05-02T02:19:36;98582.00;;;4.64;100.00
54936;BME280;40838;50.676;7.838;2023-05-02T02:22:05;98580.44;;;4.28;100.00
54936;BME280;40838;50.676;7.838;2023-05-02T02:24:33;98581.47;;;4.62;100.00
54936;BME280;40838;50.676;7.838;2023-05-02T02:27:00;98581.09;;;4.58;100.00
54936;BME280;40838;50.676;7.838;2023-05-02T02:29:27;98589.38;;;5.02;100.00
54936;BME280;40838;50.676;7.838;2023-05-02T02:31:55;98581.31;;;5.21;100.00
54936;BME280;40838;50.676;7.838;2023-05-02T02:34:22;98590.47;;;5.30;100.00
54936;BME280;40838;50.676;7.838;2023-05-02T02:36:50;98585.06;;;5.25;100.00
54936;BME280;40838;50.676;7.838;2023-05-02T02:39:32;98591.06;;;5.20;100.00
54936;BME280;40838;50.676;7.838;2023-05-02T02:42:02;98596.44;;;4.85;100.00
54936;BME280;40838;50.676;7.838;2023-05-02T02:44:34;98598.97;;;4.92;100.00
54936;BME280;40838;50.676;7.838;2023-05-02T02:47:05;98591.47;;;5.00;100.00
54936;BME280;40838;50.676;7.838;2023-05-02T02:49:35;98597.56;;;5.01;100.00
54936;BME280;40838;50.676;7.838;2023-05-02T02:52:05;98598.28;;;5.25;100.00
54936;BME280;40838;50.676;7.838;2023-05-02T02:54:38;98610.50;;;5.02;100.00
54936;BME280;40838;50.676;7.838;2023-05-02T02:57:11;98605.16;;;5.26;100.00
54936;BME280;40838;50.676;7.838;2023-05-02T02:59:41;98606.13;;;5.08;100.00
54936;BME280;40838;50.676;7.838;2023-05-02T03:02:12;98607.09;;;4.90;100.00
54936;BME280;40838;50.676;7.838;2023-05-02T03:04:40;98610.41;;;5.38;100.00
54936;BME280;40838;50.676;7.838;2023-05-02T03:07:08;98614.81;;;4.92;100.00
54936;BME280;40838;50.676;7.838;2023-05-02T03:09:41;98627.78;;;4.81;100.00
54936;BME280;40838;50.676;7.838;2023-05-02T03:12:10;98616.31;;;5.28;100.00
54936;BME280;40838;50.676;7.838;2023-05-02T03:14:38;98618.13;;;4.87;100.00
54936;BME280;40838;50.676;7.838;2023-05-02T03:17:05;98628.03;;;4.80;100.00
54936;BME280;40838;50.676;7.838;2023-05-02T03:19:33;98621.44;;;5.34;100.00
54936;BME280;40838;50.676;7.838;2023-05-02T03:22:00;98623.72;;;5.43;100.00
54936;BME280;40838;50.676;7.838;2023-05-02T03:24:28;98624.91;;;5.35;100.00
54936;BME280;40838;50.676;7.838;2023-05-02T03:26:57;98625.47;;;5.66;100.00
54936;BME280;40838;50.676;7.838;2023-05-02T03:29:31;98624.59;;;5.20;100.00
54936;BME280;40838;50.676;7.838;2023-05-02T03:31:57;98630.28;;;5.00;100.00
54936;BME280;40838;50.676;7.838;2023-05-02T03:34:24;98636.63;;;5.27;100.00
54936;BME280;40838;50.676;7.838;2023-05-02T03:36:52;98634.09;;;5.61;100.00
54936;BME280;40838;50.676;7.838;2023-05-02T03:39:19;98631.31;;;5.68;100.00
54936;BME280;40838;50.676;7.838;2023-05-02T03:41:47;98633.16;;;5.67;100.00
54936;BME280;40838;50.676;7.838;2023-05-02T03:44:18;98636.03;;;5.66;100.00
54936;BME280;40838;50.676;7.838;2023-05-02T03:46:45;98643.31;;;5.75;100.00
54936;BME280;40838;50.676;7.838;2023-05-02T03:49:12;98645.19;;;5.75;100.00
54936;BME280;40838;50.676;7.838;2023-05-02T03:51:41;98651.25;;;5.58;100.00
54936;BME280;40838;50.676;7.838;2023-05-02T03:54:08;98647.34;;;5.78;100.00
54936;BME280;40838;50.676;7.838;2023-05-02T03:56:39;98646.59;;;5.66;100.00
54936;BME280;40838;50.676;7.838;2023-05-02T03:59:17;98652.22;;;5.00;100.00
54936;BME280;40838;50.676;7.838;2023-05-02T04:01:48;98655.53;;;4.96;100.00
54936;BME280;40838;50.676;7.838;2023-05-02T04:04:16;98657.44;;;5.24;100.00
54936;BME280;40838;50.676;7.838;2023-05-02T04:06:49;98658.47;;;5.11;100.00
54936;BME280;40838;50.676;7.838;2023-05-02T04:09:16;98655.38;;;5.54;100.00
54936;BME280;40838;50.676;7.838;2023-05-02T04:11:49;98662.22;;;5.39;100.00
54936;BME280;40838;50.676;7.838;2023-05-02T04:14:16;98664.88;;;5.39;100.00
54936;BME280;40838;50.676;7.838;2023-05-02T04:16:46;98666.00;;;5.43;100.00
54936;BME280;40838;50.676;7.838;2023-05-02T04:19:15;98665.38;;;5.24;100.00
54936;BME280;40838;50.676;7.838;2023-05-02T04:21:42;98665.28;;;5.07;100.00
54936;BME280;40838;50.676;7.838;2023-05-02T04:24:10;98672.22;;;5.37;100.00
54936;BME280;40838;50.676;7.838;2023-05-02T04:26:37;98682.22;;;5.23;100.00
54936;BME280;40838;50.676;7.838;2023-05-02T04:29:08;98674.72;;;5.72;100.00
54936;BME280;40838;50.676;7.838;2023-05-02T04:31:35;98674.19;;;5.29;100.00
54936;BME280;40838;50.676;7.838;2023-05-02T04:34:02;98685.94;;;5.62;100.00
54936;BME280;40838;50.676;7.838;2023-05-02T04:36:35;98681.97;;;5.76;100.00
54936;BME280;40838;50.676;7.838;2023-05-02T04:39:04;98689.53;;;5.85;100.00
54936;BME280;40838;50.676;7.838;2023-05-02T04:41:34;98692.59;;;5.93;100.00
54936;BME280;40838;50.676;7.838;2023-05-02T04:44:04;98704.09;;;5.87;100.00
54936;BME280;40838;50.676;7.838;2023-05-02T04:46:32;98704.78;;;5.94;100.00
54936;BME280;40838;50.676;7.838;2023-05-02T04:48:59;98701.09;;;5.95;100.00
54936;BME280;40838;50.676;7.838;2023-05-02T04:51:25;98709.66;;;5.74;100.00
54936;BME280;40838;50.676;7.838;2023-05-02T04:53:55;98713.72;;;5.65;100.00
54936;BME280;40838;50.676;7.838;2023-05-02T04:56:22;98705.97;;;5.87;100.00
54936;BME280;40838;50.676;7.838;2023-05-02T04:58:48;98711.72;;;5.72;100.00
54936;BME280;40838;50.676;7.838;2023-05-02T05:01:15;98717.50;;;5.69;100.00
54936;BME280;40838;50.676;7.838;2023-05-02T05:03:43;98716.81;;;6.02;100.00
54936;BME280;40838;50.676;7.838;2023-05-02T05:06:10;98716.72;;;5.97;100.00
54936;BME280;40838;50.676;7.838;2023-05-02T05:08:37;98719.00;;;6.05;100.00
54936;BME280;40838;50.676;7.838;2023-05-02T05:11:05;98726.38;;;6.03;100.00
54936;BME280;40838;50.676;7.838;2023-05-02T05:13:33;98728.22;;;6.02;100.00
54936;BME280;40838;50.676;7.838;2023-05-02T05:16:01;98735.66;;;5.65;100.00
54936;BME280;40838;50.676;7.838;2023-05-02T05:18:30;98735.41;;;6.07;100.00
54936;BME280;40838;50.676;7.838;2023-05-02T05:21:04;98736.50;;;5.94;100.00
54936;BME280;40838;50.676;7.838;2023-05-02T05:23:31;98750.91;;;5.75;100.00
54936;BME280;40838;50.676;7.838;2023-05-02T05:26:08;98747.56;;;6.20;100.00
54936;BME280;40838;50.676;7.838;2023-05-02T05:28:37;98740.13;;;6.51;100.00
54936;BME280;40838;50.676;7.838;2023-05-02T05:31:04;98748.53;;;6.02;100.00
54936;BME280;40838;50.676;7.838;2023-05-02T05:33:32;98751.59;;;6.39;100.00
54936;BME280;40838;50.676;7.838;2023-05-02T05:36:02;98750.22;;;6.20;100.00
54936;BME280;40838;50.676;7.838;2023-05-02T05:38:29;98757.63;;;6.06;100.00
54936;BME280;40838;50.676;7.838;2023-05-02T05:40:55;98758.25;;;5.96;100.00
54936;BME280;40838;50.676;7.838;2023-05-02T05:43:23;98765.47;;;6.01;100.00
54936;BME280;40838;50.676;7.838;2023-05-02T05:45:51;98762.22;;;6.28;100.00
54936;BME280;40838;50.676;7.838;2023-05-02T05:48:18;98773.44;;;6.18;100.00
54936;BME280;40838;50.676;7.838;2023-05-02T05:50:45;98771.91;;;6.05;100.00
54936;BME280;40838;50.676;7.838;2023-05-02T05:53:14;98770.84;;;6.06;100.00
54936;BME280;40838;50.676;7.838;2023-05-02T05:55:44;98779.44;;;6.13;100.00
54936;BME280;40838;50.676;7.838;2023-05-02T05:58:10;98785.53;;;6.14;100.00
54936;BME280;40838;50.676;7.838;2023-05-02T06:00:39;98791.75;;;6.08;100.00
54936;BME280;40838;50.676;7.838;2023-05-02T06:03:06;98794.81;;;5.99;100.00
54936;BME280;40838;50.676;7.838;2023-05-02T06:05:33;98799.16;;;6.06;100.00
54936;BME280;40838;50.676;7.838;2023-05-02T06:08:00;98800.63;;;6.01;100.00
54936;BME280;40838;50.676;7.838;2023-05-02T06:10:27;98809.44;;;6.19;100.00
54936;BME280;40838;50.676;7.838;2023-05-02T06:12:53;98802.34;;;6.36;100.00
54936;BME280;40838;50.676;7.838;2023-05-02T06:15:25;98812.59;;;6.04;100.00
54936;BME280;40838;50.676;7.838;2023-05-02T06:17:53;98812.88;;;5.79;100.00
54936;BME280;40838;50.676;7.838;2023-05-02T06:20:19;98817.47;;;6.24;100.00
54936;BME280;40838;50.676;7.838;2023-05-02T06:22:46;98818.22;;;6.36;100.00
54936;BME280;40838;50.676;7.838;2023-05-02T06:25:13;98817.63;;;6.63;100.00
54936;BME280;40838;50.676;7.838;2023-05-02T06:27:40;98822.28;;;6.56;100.00
54936;BME280;40838;50.676;7.838;2023-05-02T06:30:07;98825.31;;;6.47;100.00
54936;BME280;40838;50.676;7.838;2023-05-02T06:32:33;98832.13;;;6.43;100.00
54936;BME280;40838;50.676;7.838;2023-05-02T06:35:01;98832.81;;;6.39;100.00
54936;BME280;40838;50.676;7.838;2023-05-02T06:37:33;98843.63;;;6.66;100.00
54936;BME280;40838;50.676;7.838;2023-05-02T06:40:00;98842.56;;;6.50;100.00
54936;BME280;40838;50.676;7.838;2023-05-02T06:42:29;98838.66;;;6.69;100.00
54936;BME280;40838;50.676;7.838;2023-05-02T06:44:55;98845.78;;;6.69;100.00
54936;BME280;40838;50.676;7.838;2023-05-02T06:47:22;98847.53;;;6.63;100.00
54936;BME280;40838;50.676;7.838;2023-05-02T06:49:49;98852.88;;;6.52;100.00
54936;BME280;40838;50.676;7.838;2023-05-02T06:52:18;98856.81;;;6.94;100.00
54936;BME280;40838;50.676;7.838;2023-05-02T06:54:45;98853.94;;;6.96;100.00
54936;BME280;40838;50.676;7.838;2023-05-02T06:57:11;98857.91;;;6.36;100.00
54936;BME280;40838;50.676;7.838;2023-05-02T06:59:38;98872.13;;;6.76;100.00
54936;BME280;40838;50.676;7.838;2023-05-02T07:02:05;98864.75;;;6.20;100.00
54936;BME280;40838;50.676;7.838;2023-05-02T07:04:31;98870.50;;;6.75;100.00
54936;BME280;40838;50.676;7.838;2023-05-02T07:06:58;98867.38;;;6.78;100.00
54936;BME280;40838;50.676;7.838;2023-05-02T07:09:26;98871.50;;;6.57;100.00
54936;BME280;40838;50.676;7.838;2023-05-02T07:11:54;98878.13;;;6.71;100.00
54936;BME280;40838;50.676;7.838;2023-05-02T07:14:21;98881.66;;;6.77;100.00
54936;BME280;40838;50.676;7.838;2023-05-02T07:16:49;98880.13;;;6.64;100.00
54936;BME280;40838;50.676;7.838;2023-05-02T07:19:18;98882.69;;;6.59;100.00
54936;BME280;40838;50.676;7.838;2023-05-02T07:21:44;98887.06;;;6.82;100.00
54936;BME280;40838;50.676;7.838;2023-05-02T07:24:11;98894.16;;;6.93;100.00
54936;BME280;40838;50.676;7.838;2023-05-02T07:26:41;98896.94;;;6.29;100.00
54936;BME280;40838;50.676;7.838;2023-05-02T07:29:08;98893.31;;;6.47;100.00
54936;BME280;40838;50.676;7.838;2023-05-02T07:31:34;98901.47;;;6.74;100.00
54936;BME280;40838;50.676;7.838;2023-05-02T07:34:01;98898.81;;;7.20;100.00
54936;BME280;40838;50.676;7.838;2023-05-02T07:36:27;98894.88;;;7.05;100.00
54936;BME280;40838;50.676;7.838;2023-05-02T07:38:54;98898.13;;;7.41;100.00
54936;BME280;40838;50.676;7.838;2023-05-02T07:41:20;98895.78;;;7.28;100.00
54936;BME280;40838;50.676;7.838;2023-05-02T07:43:48;98900.97;;;7.56;100.00
54936;BME280;40838;50.676;7.838;2023-05-02T07:46:15;98900.56;;;7.81;100.00
54936;BME280;40838;50.676;7.838;2023-05-02T07:48:42;98906.94;;;8.02;100.00
54936;BME280;40838;50.676;7.838;2023-05-02T07:51:09;98898.72;;;8.04;100.00
54936;BME280;40838;50.676;7.838;2023-05-02T07:53:38;98911.25;;;8.09;100.00
54936;BME280;40838;50.676;7.838;2023-05-02T07:56:05;98903.53;;;8.07;100.00
54936;BME280;40838;50.676;7.838;2023-05-02T07:58:33;98910.19;;;8.10;100.00
54936;BME280;40838;50.676;7.838;2023-05-02T08:01:01;98905.13;;;8.08;100.00
54936;BME280;40838;50.676;7.838;2023-05-02T08:03:28;98915.53;;;9.08;100.00
54936;BME280;40838;50.676;7.838;2023-05-02T08:05:55;98913.94;;;9.81;100.00
54936;BME280;40838;50.676;7.838;2023-05-02T08:08:21;98915.97;;;9.00;100.00
54936;BME280;40838;50.676;7.838;2023-05-02T08:10:48;98918.34;;;8.47;100.00
54936;BME280;40838;50.676;7.838;2023-05-02T08:13:15;98924.59;;;8.58;100.00
54936;BME280;40838;50.676;7.838;2023-05-02T08:15:42;98926.56;;;8.67;100.00
54936;BME280;40838;50.676;7.838;2023-05-02T08:18:10;98917.13;;;8.82;100.00
54936;BME280;40838;50.676;7.838;2023-05-02T08:20:36;98922.22;;;8.83;100.00
54936;BME280;40838;50.676;7.838;2023-05-02T08:23:03;98924.50;;;9.02;100.00
54936;BME280;40838;50.676;7.838;2023-05-02T08:25:29;98928.47;;;8.72;100.00
54936;BME280;40838;50.676;7.838;2023-05-02T08:27:56;98930.31;;;8.99;100.00
54936;BME280;40838;50.676;7.838;2023-05-02T08:30:22;98927.19;;;9.71;100.00
54936;BME280;40838;50.676;7.838;2023-05-02T08:32:49;98932.88;;;9.90;100.00
54936;BME280;40838;50.676;7.838;2023-05-02T08:35:17;98936.75;;;10.20;100.00
54936;BME280;40838;50.676;7.838;2023-05-02T08:37:44;98936.97;;;10.71;100.00
54936;BME280;40838;50.676;7.838;2023-05-02T08:40:11;98937.03;;;10.18;100.00
54936;BME280;40838;50.676;7.838;2023-05-02T08:42:40;98942.34;;;10.13;100.00
54936;BME280;40838;50.676;7.838;2023-05-02T08:45:07;98933.31;;;10.19;100.00
54936;BME280;40838;50.676;7.838;2023-05-02T08:47:34;98931.56;;;13.87;100.00
54936;BME280;40838;50.676;7.838;2023-05-02T08:50:02;98933.56;;;11.57;100.00
54936;BME280;40838;50.676;7.838;2023-05-02T08:52:31;98944.91;;;10.55;100.00
54936;BME280;40838;50.676;7.838;2023-05-02T08:54:58;98947.09;;;10.74;100.00
54936;BME280;40838;50.676;7.838;2023-05-02T08:57:27;98941.06;;;11.14;100.00
54936;BME280;40838;50.676;7.838;2023-05-02T08:59:54;98946.09;;;11.57;100.00
54936;BME280;40838;50.676;7.838;2023-05-02T09:02:22;98945.63;;;12.50;100.00
54936;BME280;40838;50.676;7.838;2023-05-02T09:04:53;98952.50;;;10.99;100.00
54936;BME280;40838;50.676;7.838;2023-05-02T09:07:20;98950.38;;;11.37;100.00
54936;BME280;40838;50.676;7.838;2023-05-02T09:09:48;98959.72;;;11.19;100.00
54936;BME280;40838;50.676;7.838;2023-05-02T09:12:15;98954.09;;;11.77;100.00
54936;BME280;40838;50.676;7.838;2023-05-02T09:14:42;98957.28;;;10.97;100.00
54936;BME280;40838;50.676;7.838;2023-05-02T09:17:08;98957.25;;;12.15;100.00
54936;BME280;40838;50.676;7.838;2023-05-02T09:19:35;98973.16;;;10.62;100.00
54936;BME280;40838;50.676;7.838;2023-05-02T09:22:02;98959.38;;;12.18;100.00
54936;BME280;40838;50.676;7.838;2023-05-02T09:24:28;98960.75;;;12.70;100.00
54936;BME280;40838;50.676;7.838;2023-05-02T09:26:57;98964.16;;;12.26;98.25
54936;BME280;40838;50.676;7.838;2023-05-02T09:29:25;98959.97;;;12.75;98.26
54936;BME280;40838;50.676;7.838;2023-05-02T09:31:52;98956.53;;;13.09;95.71
54936;BME280;40838;50.676;7.838;2023-05-02T09:34:19;98956.09;;;14.18;91.79
54936;BME280;40838;50.676;7.838;2023-05-02T09:36:48;98959.13;;;14.59;86.49
54936;BME280;40838;50.676;7.838;2023-05-02T09:39:17;98960.31;;;14.00;87.60
54936;BME280;40838;50.676;7.838;2023-05-02T09:41:44;98962.66;;;11.59;97.51
54936;BME280;40838;50.676;7.838;2023-05-02T09:44:13;98966.50;;;10.59;100.00
54936;BME280;40838;50.676;7.838;2023-05-02T09:46:40;98982.25;;;9.11;100.00
54936;BME280;40838;50.676;7.838;2023-05-02T09:49:07;98977.22;;;9.10;100.00
54936;BME280;40838;50.676;7.838;2023-05-02T09:51:34;98980.34;;;9.34;100.00
54936;BME280;40838;50.676;7.838;2023-05-02T09:54:00;98983.81;;;9.07;100.00
54936;BME280;40838;50.676;7.838;2023-05-02T09:56:27;98986.41;;;9.29;100.00
54936;BME280;40838;50.676;7.838;2023-05-02T10:01:36;98994.59;;;8.73;100.00
54936;BME280;40838;50.676;7.838;2023-05-02T10:04:03;98994.34;;;8.97;100.00
54936;BME280;40838;50.676;7.838;2023-05-02T10:06:30;98999.97;;;9.28;100.00
54936;BME280;40838;50.676;7.838;2023-05-02T10:08:58;99000.41;;;9.79;100.00
54936;BME280;40838;50.676;7.838;2023-05-02T10:11:24;98988.44;;;12.95;100.00
54936;BME280;40838;50.676;7.838;2023-05-02T10:13:52;98994.94;;;14.45;90.31
54936;BME280;40838;50.676;7.838;2023-05-02T10:16:20;98999.91;;;12.41;100.00
54936;BME280;40838;50.676;7.838;2023-05-02T10:18:57;98994.41;;;12.71;97.65
54936;BME280;40838;50.676;7.838;2023-05-02T10:21:26;99000.22;;;13.33;93.63
54936;BME280;40838;50.676;7.838;2023-05-02T10:23:53;99003.34;;;12.46;97.27
54936;BME280;40838;50.676;7.838;2023-05-02T10:26:20;99006.16;;;11.64;98.99
54936;BME280;40838;50.676;7.838;2023-05-02T10:28:49;99011.25;;;10.62;100.00
54936;BME280;40838;50.676;7.838;2023-05-02T10:31:16;99017.91;;;9.70;100.00
54936;BME280;40838;50.676;7.838;2023-05-02T10:33:43;99034.66;;;8.50;100.00
54936;BME280;40838;50.676;7.838;2023-05-02T10:36:13;99031.53;;;8.53;100.00
54936;BME280;40838;50.676;7.838;2023-05-02T10:38:40;99031.31;;;8.55;100.00
54936;BME280;40838;50.676;7.838;2023-05-02T10:41:08;99028.44;;;8.39;100.00
54936;BME280;40838;50.676;7.838;2023-05-02T10:43:35;99031.06;;;9.27;100.00
54936;BME280;40838;50.676;7.838;2023-05-02T10:46:04;99036.78;;;9.14;100.00
54936;BME280;40838;50.676;7.838;2023-05-02T10:48:58;99036.38;;;8.78;100.00
54936;BME280;40838;50.676;7.838;2023-05-02T10:51:27;99043.25;;;9.23;100.00
54936;BME280;40838;50.676;7.838;2023-05-02T10:59:25;99042.50;;;9.28;100.00
54936;BME280;40838;50.676;7.838;2023-05-02T11:01:52;99048.47;;;9.40;100.00
54936;BME280;40838;50.676;7.838;2023-05-02T11:04:19;99038.44;;;10.17;100.00
54936;BME280;40838;50.676;7.838;2023-05-02T11:09:33;99046.38;;;10.06;100.00
54936;BME280;40838;50.676;7.838;2023-05-02T11:11:59;99047.06;;;9.64;100.00
54936;BME280;40838;50.676;7.838;2023-05-02T11:14:41;99047.06;;;9.92;100.00
54936;BME280;40838;50.676;7.838;2023-05-02T11:17:08;99058.06;;;8.92;100.00
54936;BME280;40838;50.676;7.838;2023-05-02T11:22:30;99059.97;;;9.18;100.00
54936;BME280;40838;50.676;7.838;2023-05-02T11:24:58;99048.78;;;8.72;100.00
54936;BME280;40838;50.676;7.838;2023-05-02T11:27:37;99058.59;;;8.94;100.00
54936;BME280;40838;50.676;7.838;2023-05-02T11:30:04;99052.50;;;8.93;100.00
54936;BME280;40838;50.676;7.838;2023-05-02T11:35:13;99050.13;;;8.97;100.00
54936;BME280;40838;50.676;7.838;2023-05-02T11:37:41;99054.53;;;9.35;100.00
54936;BME280;40838;50.676;7.838;2023-05-02T11:40:13;99049.84;;;8.93;100.00
54936;BME280;40838;50.676;7.838;2023-05-02T11:42:40;99049.25;;;9.13;100.00
54936;BME280;40838;50.676;7.838;2023-05-02T11:45:06;99052.00;;;8.52;100.00
54936;BME280;40838;50.676;7.838;2023-05-02T11:47:33;99046.88;;;8.29;100.00
54936;BME280;40838;50.676;7.838;2023-05-02T11:50:02;99054.22;;;8.05;100.00
54936;BME280;40838;50.676;7.838;2023-05-02T11:52:29;99054.34;;;8.32;100.00
54936;BME280;40838;50.676;7.838;2023-05-02T11:54:56;99061.88;;;8.40;100.00
54936;BME280;40838;50.676;7.838;2023-05-02T11:57:24;99064.28;;;7.69;100.00
54936;BME280;40838;50.676;7.838;2023-05-02T11:59:51;99060.69;;;8.48;100.00
54936;BME280;40838;50.676;7.838;2023-05-02T12:02:17;99066.22;;;8.63;100.00
54936;BME280;40838;50.676;7.838;2023-05-02T12:04:44;99058.81;;;8.87;100.00
54936;BME280;40838;50.676;7.838;2023-05-02T12:07:11;99064.25;;;8.76;100.00
54936;BME280;40838;50.676;7.838;2023-05-02T12:09:48;99065.03;;;8.37;100.00
54936;BME280;40838;50.676;7.838;2023-05-02T12:12:18;99072.63;;;9.11;100.00
54936;BME280;40838;50.676;7.838;2023-05-02T12:14:46;99075.25;;;9.33;100.00
54936;BME280;40838;50.676;7.838;2023-05-02T12:17:12;99083.28;;;9.65;100.00
54936;BME280;40838;50.676;7.838;2023-05-02T12:19:39;99083.91;;;9.73;100.00
54936;BME280;40838;50.676;7.838;2023-05-02T12:22:08;99085.13;;;9.92;100.00
54936;BME280;40838;50.676;7.838;2023-05-02T12:24:35;99085.75;;;9.45;100.00
54936;BME280;40838;50.676;7.838;2023-05-02T12:27:08;99083.59;;;10.39;100.00
54936;BME280;40838;50.676;7.838;2023-05-02T12:29:38;99083.88;;;10.42;98.30
54936;BME280;40838;50.676;7.838;2023-05-02T12:32:06;99092.50;;;10.60;98.63
54936;BME280;40838;50.676;7.838;2023-05-02T12:34:33;99082.41;;;10.62;96.87
54936;BME280;40838;50.676;7.838;2023-05-02T12:37:00;99090.97;;;10.74;97.03
54936;BME280;40838;50.676;7.838;2023-05-02T12:39:33;99096.03;;;10.75;97.01
54936;BME280;40838;50.676;7.838;2023-05-02T12:41:59;99094.94;;;10.66;94.62
54936;BME280;40838;50.676;7.838;2023-05-02T12:44:37;99100.53;;;10.65;97.12
54936;BME280;40838;50.676;7.838;2023-05-02T12:47:04;99096.66;;;10.83;92.15
54936;BME280;40838;50.676;7.838;2023-05-02T12:49:32;99095.66;;;11.04;91.24
54936;BME280;40838;50.676;7.838;2023-05-02T12:51:59;99094.31;;;10.49;90.96
54936;BME280;40838;50.676;7.838;2023-05-02T12:54:25;99097.75;;;10.44;94.18
54936;BME280;40838;50.676;7.838;2023-05-02T12:56:52;99101.63;;;10.26;94.79
54936;BME280;40838;50.676;7.838;2023-05-02T12:59:25;99103.50;;;9.67;94.56
54936;BME280;40838;50.676;7.838;2023-05-02T13:01:52;99106.50;;;10.40;95.61
54936;BME280;40838;50.676;7.838;2023-05-02T13:04:18;99109.19;;;10.07;99.40
54936;BME280;40838;50.676;7.838;2023-05-02T13:06:46;99110.16;;;9.96;100.00
54936;BME280;40838;50.676;7.838;2023-05-02T13:09:13;99113.47;;;10.08;100.00
54936;BME280;40838;50.676;7.838;2023-05-02T13:11:40;99125.28;;;9.36;100.00
54936;BME280;40838;50.676;7.838;2023-05-02T13:14:10;99120.41;;;9.77;100.00
54936;BME280;40838;50.676;7.838;2023-05-02T13:16:36;99130.66;;;9.19;100.00
54936;BME280;40838;50.676;7.838;2023-05-02T13:19:03;99128.66;;;9.32;100.00
54936;BME280;40838;50.676;7.838;2023-05-02T13:21:29;99126.88;;;9.37;100.00